sensor_id;sensor_type;location;lat;lon;timestamp;P1;durP1;ratioP1;P2;durP2;ratioP2
51985;SDS011;38002;53.296;6.600;2024-02-23T00:04:05;7.10;;;0.87;;
51985;SDS011;38002;53.296;6.600;2024-02-23T00:09:07;5.07;;;0.57;;
51985;SDS011;38002;53.296;6.600;2024-02-23T00:14:07;3.40;;;0.70;;
51985;SDS011;38002;53.296;6.600;2024-02-23T00:19:08;3.33;;;0.77;;
51985;SDS011;38002;53.296;6.600;2024-02-23T00:24:11;5.15;;;1.00;;
51985;SDS011;38002;53.296;6.600;2024-02-23T00:29:12;5.03;;;0.50;;
51985;SDS011;38002;53.296;6.600;2024-02-23T00:34:12;8.60;;;0.70;;
51985;SDS011;38002;53.296;6.600;2024-02-23T00:39:14;5.88;;;0.50;;
51985;SDS011;38002;53.296;6.600;2024-02-23T00:44:14;5.47;;;0.90;;
51985;SDS011;38002;53.296;6.600;2024-02-23T00:49:15;2.43;;;1.07;;
51985;SDS011;38002;53.296;6.600;2024-02-23T00:54:15;5.30;;;1.57;;
51985;SDS011;38002;53.296;6.600;2024-02-23T00:59:16;9.40;;;2.77;;
51985;SDS011;38002;53.296;6.600;2024-02-23T01:04:16;12.87;;;3.30;;
51985;SDS011;38002;53.296;6.600;2024-02-23T01:09:17;1.37;;;1.10;;
51985;SDS011;38002;53.296;6.600;2024-02-23T01:14:20;1.63;;;1.00;;
51985;SDS011;38002;53.296;6.600;2024-02-23T01:19:20;6.50;;;0.88;;
51985;SDS011;38002;53.296;6.600;2024-02-23T01:24:21;2.45;;;1.13;;
51985;SDS011;38002;53.296;6.600;2024-02-23T01:29:22;3.03;;;1.30;;
51985;SDS011;38002;53.296;6.600;2024-02-23T01:34:22;10.98;;;1.42;;
51985;SDS011;38002;53.296;6.600;2024-02-23T01:39:23;5.10;;;0.90;;
51985;SDS011;38002;53.296;6.600;2024-02-23T01:44:23;5.37;;;1.13;;
51985;SDS011;38002;53.296;6.600;2024-02-23T01:49:23;10.88;;;1.48;;
51985;SDS011;38002;53.296;6.600;2024-02-23T01:54:29;5.93;;;1.63;;
51985;SDS011;38002;53.296;6.600;2024-02-23T01:59:31;10.68;;;1.10;;
51985;SDS011;38002;53.296;6.600;2024-02-23T02:04:31;5.10;;;0.83;;
51985;SDS011;38002;53.296;6.600;2024-02-23T02:09:32;5.07;;;1.50;;
51985;SDS011;38002;53.296;6.600;2024-02-23T02:14:32;4.20;;;0.90;;
51985;SDS011;38002;53.296;6.600;2024-02-23T02:19:33;8.40;;;1.47;;
51985;SDS011;38002;53.296;6.600;2024-02-23T02:24:34;9.87;;;1.67;;
51985;SDS011;38002;53.296;6.600;2024-02-23T02:29:35;6.63;;;2.03;;
51985;SDS011;38002;53.296;6.600;2024-02-23T02:34:36;5.75;;;0.98;;
51985;SDS011;38002;53.296;6.600;2024-02-23T02:39:36;9.10;;;1.70;;
51985;SDS011;38002;53.296;6.600;2024-02-23T02:44:36;13.80;;;2.55;;
51985;SDS011;38002;53.296;6.600;2024-02-23T02:54:40;7.60;;;1.50;;
51985;SDS011;38002;53.296;6.600;2024-02-23T02:59:40;11.23;;;1.98;;
51985;SDS011;38002;53.296;6.600;2024-02-23T03:04:47;14.37;;;1.90;;
51985;SDS011;38002;53.296;6.600;2024-02-23T03:09:48;8.07;;;1.67;;
51985;SDS011;38002;53.296;6.600;2024-02-23T03:14:50;5.32;;;1.55;;
51985;SDS011;38002;53.296;6.600;2024-02-23T03:19:51;10.38;;;2.15;;
51985;SDS011;38002;53.296;6.600;2024-02-23T03:24:51;7.53;;;2.03;;
51985;SDS011;38002;53.296;6.600;2024-02-23T03:29:52;7.40;;;1.65;;
51985;SDS011;38002;53.296;6.600;2024-02-23T03:34:52;12.00;;;1.27;;
51985;SDS011;38002;53.296;6.600;2024-02-23T03:39:52;7.78;;;2.00;;
51985;SDS011;38002;53.296;6.600;2024-02-23T03:44:53;9.07;;;1.23;;
51985;SDS011;38002;53.296;6.600;2024-02-23T03:49:53;5.17;;;0.97;;
51985;SDS011;38002;53.296;6.600;2024-02-23T03:54:54;7.47;;;1.27;;
51985;SDS011;38002;53.296;6.600;2024-02-23T03:59:55;6.43;;;1.13;;
51985;SDS011;38002;53.296;6.600;2024-02-23T04:04:57;7.78;;;1.52;;
51985;SDS011;38002;53.296;6.600;2024-02-23T04:09:58;12.82;;;1.70;;
51985;SDS011;38002;53.296;6.600;2024-02-23T04:14:58;7.43;;;1.13;;
51985;SDS011;38002;53.296;6.600;2024-02-23T04:20:00;13.23;;;2.27;;
51985;SDS011;38002;53.296;6.600;2024-02-23T04:25:05;7.15;;;1.20;;
51985;SDS011;38002;53.296;6.600;2024-02-23T04:30:05;3.67;;;1.10;;
51985;SDS011;38002;53.296;6.600;2024-02-23T04:35:06;9.17;;;1.70;;
51985;SDS011;38002;53.296;6.600;2024-02-23T04:40:07;5.53;;;1.07;;
51985;SDS011;38002;53.296;6.600;2024-02-23T04:45:08;13.47;;;2.40;;
51985;SDS011;38002;53.296;6.600;2024-02-23T04:50:09;5.97;;;1.20;;
51985;SDS011;38002;53.296;6.600;2024-02-23T04:55:10;16.90;;;1.38;;
51985;SDS011;38002;53.296;6.600;2024-02-23T05:00:10;3.00;;;1.03;;
51985;SDS011;38002;53.296;6.600;2024-02-23T05:05:11;7.95;;;1.33;;
51985;SDS011;38002;53.296;6.600;2024-02-23T05:10:12;6.47;;;1.47;;
51985;SDS011;38002;53.296;6.600;2024-02-23T05:15:13;9.93;;;1.73;;
51985;SDS011;38002;53.296;6.600;2024-02-23T05:20:13;5.00;;;0.98;;
51985;SDS011;38002;53.296;6.600;2024-02-23T05:25:14;9.10;;;1.17;;
51985;SDS011;38002;53.296;6.600;2024-02-23T05:30:15;4.23;;;0.90;;
51985;SDS011;38002;53.296;6.600;2024-02-23T05:35:15;8.48;;;1.45;;
51985;SDS011;38002;53.296;6.600;2024-02-23T05:40:16;6.13;;;1.33;;
51985;SDS011;38002;53.296;6.600;2024-02-23T05:45:16;10.20;;;1.02;;
51985;SDS011;38002;53.296;6.600;2024-02-23T05:50:17;6.60;;;1.13;;
51985;SDS011;38002;53.296;6.600;2024-02-23T05:55:17;5.97;;;1.77;;
51985;SDS011;38002;53.296;6.600;2024-02-23T06:00:18;5.27;;;1.70;;
51985;SDS011;38002;53.296;6.600;2024-02-23T06:05:19;14.50;;;2.22;;
51985;SDS011;38002;53.296;6.600;2024-02-23T06:10:19;9.50;;;1.13;;
51985;SDS011;38002;53.296;6.600;2024-02-23T06:15:19;12.27;;;1.80;;
51985;SDS011;38002;53.296;6.600;2024-02-23T06:20:20;5.07;;;1.40;;
51985;SDS011;38002;53.296;6.600;2024-02-23T06:25:20;3.53;;;1.70;;
51985;SDS011;38002;53.296;6.600;2024-02-23T06:30:21;11.55;;;3.22;;
51985;SDS011;38002;53.296;6.600;2024-02-23T06:35:21;4.20;;;2.40;;
51985;SDS011;38002;53.296;6.600;2024-02-23T06:40:22;9.27;;;3.37;;
51985;SDS011;38002;53.296;6.600;2024-02-23T06:45:22;6.27;;;3.17;;
51985;SDS011;38002;53.296;6.600;2024-02-23T06:50:25;11.30;;;3.92;;
51985;SDS011;38002;53.296;6.600;2024-02-23T06:55:26;7.22;;;3.67;;
51985;SDS011;38002;53.296;6.600;2024-02-23T07:00:26;8.30;;;3.90;;
51985;SDS011;38002;53.296;6.600;2024-02-23T07:05:27;6.67;;;3.70;;
51985;SDS011;38002;53.296;6.600;2024-02-23T07:10:27;11.75;;;4.50;;
51985;SDS011;38002;53.296;6.600;2024-02-23T07:15:29;12.35;;;4.05;;
51985;SDS011;38002;53.296;6.600;2024-02-23T07:20:30;12.33;;;4.37;;
51985;SDS011;38002;53.296;6.600;2024-02-23T07:25:30;11.75;;;4.57;;
51985;SDS011;38002;53.296;6.600;2024-02-23T07:30:31;11.07;;;4.27;;
51985;SDS011;38002;53.296;6.600;2024-02-23T07:35:31;9.07;;;4.70;;
51985;SDS011;38002;53.296;6.600;2024-02-23T07:40:31;16.73;;;4.70;;
51985;SDS011;38002;53.296;6.600;2024-02-23T07:45:32;11.40;;;4.53;;
51985;SDS011;38002;53.296;6.600;2024-02-23T07:55:34;12.85;;;4.38;;
51985;SDS011;38002;53.296;6.600;2024-02-23T08:00:35;8.55;;;3.72;;
51985;SDS011;38002;53.296;6.600;2024-02-23T08:05:38;6.45;;;3.88;;
51985;SDS011;38002;53.296;6.600;2024-02-23T08:10:38;8.38;;;4.35;;
51985;SDS011;38002;53.296;6.600;2024-02-23T08:15:39;6.18;;;3.35;;
51985;SDS011;38002;53.296;6.600;2024-02-23T08:20:39;11.20;;;4.00;;
51985;SDS011;38002;53.296;6.600;2024-02-23T08:25:40;6.40;;;3.10;;
51985;SDS011;38002;53.296;6.600;2024-02-23T08:30:41;11.10;;;3.23;;
51985;SDS011;38002;53.296;6.600;2024-02-23T08:35:41;3.73;;;2.57;;
51985;SDS011;38002;53.296;6.600;2024-02-23T08:40:42;2.33;;;2.13;;
51985;SDS011;38002;53.296;6.600;2024-02-23T08:45:45;2.47;;;1.80;;
51985;SDS011;38002;53.296;6.600;2024-02-23T08:50:45;6.10;;;2.60;;
51985;SDS011;38002;53.296;6.600;2024-02-23T08:55:46;3.22;;;1.88;;
51985;SDS011;38002;53.296;6.600;2024-02-23T09:00:46;2.47;;;2.20;;
51985;SDS011;38002;53.296;6.600;2024-02-23T09:05:47;3.73;;;1.70;;
51985;SDS011;38002;53.296;6.600;2024-02-23T09:10:48;5.43;;;2.05;;
51985;SDS011;38002;53.296;6.600;2024-02-23T09:15:48;2.17;;;1.10;;
51985;SDS011;38002;53.296;6.600;2024-02-23T09:20:49;3.33;;;1.50;;
51985;SDS011;38002;53.296;6.600;2024-02-23T09:25:49;3.37;;;2.07;;
51985;SDS011;38002;53.296;6.600;2024-02-23T09:30:50;1.20;;;1.08;;
51985;SDS011;38002;53.296;6.600;2024-02-23T09:35:50;6.95;;;2.15;;
51985;SDS011;38002;53.296;6.600;2024-02-23T09:40:51;6.27;;;1.37;;
51985;SDS011;38002;53.296;6.600;2024-02-23T09:45:52;7.33;;;1.30;;
51985;SDS011;38002;53.296;6.600;2024-02-23T09:50:52;7.40;;;1.30;;
51985;SDS011;38002;53.296;6.600;2024-02-23T09:55:57;5.75;;;1.23;;
51985;SDS011;38002;53.296;6.600;2024-02-23T10:01:00;3.47;;;1.27;;
51985;SDS011;38002;53.296;6.600;2024-02-23T10:06:02;7.47;;;1.60;;
51985;SDS011;38002;53.296;6.600;2024-02-23T10:11:03;7.22;;;1.20;;
51985;SDS011;38002;53.296;6.600;2024-02-23T10:16:05;2.03;;;1.25;;
51985;SDS011;38002;53.296;6.600;2024-02-23T10:21:05;6.35;;;1.08;;
51985;SDS011;38002;53.296;6.600;2024-02-23T10:26:06;5.53;;;0.73;;
51985;SDS011;38002;53.296;6.600;2024-02-23T10:31:07;4.60;;;1.27;;
51985;SDS011;38002;53.296;6.600;2024-02-23T10:36:08;1.83;;;0.73;;
51985;SDS011;38002;53.296;6.600;2024-02-23T10:41:12;8.40;;;1.13;;
51985;SDS011;38002;53.296;6.600;2024-02-23T10:46:16;2.47;;;0.70;;
51985;SDS011;38002;53.296;6.600;2024-02-23T10:51:19;5.38;;;1.00;;
51985;SDS011;38002;53.296;6.600;2024-02-23T10:56:21;4.88;;;1.13;;
51985;SDS011;38002;53.296;6.600;2024-02-23T11:01:26;4.85;;;1.33;;
51985;SDS011;38002;53.296;6.600;2024-02-23T11:06:27;4.25;;;1.40;;
51985;SDS011;38002;53.296;6.600;2024-02-23T11:11:28;2.73;;;0.73;;
51985;SDS011;38002;53.296;6.600;2024-02-23T11:16:28;3.40;;;0.45;;
51985;SDS011;38002;53.296;6.600;2024-02-23T11:21:38;1.27;;;0.70;;
51985;SDS011;38002;53.296;6.600;2024-02-23T11:26:38;4.93;;;1.27;;
51985;SDS011;38002;53.296;6.600;2024-02-23T11:31:43;2.65;;;1.13;;
51985;SDS011;38002;53.296;6.600;2024-02-23T11:36:45;1.80;;;1.00;;
51985;SDS011;38002;53.296;6.600;2024-02-23T11:41:52;5.05;;;1.27;;
51985;SDS011;38002;53.296;6.600;2024-02-23T11:46:52;6.00;;;1.27;;
51985;SDS011;38002;53.296;6.600;2024-02-23T11:51:53;2.20;;;0.93;;
51985;SDS011;38002;53.296;6.600;2024-02-23T11:56:54;3.95;;;1.02;;
51985;SDS011;38002;53.296;6.600;2024-02-23T12:01:54;3.58;;;1.20;;
51985;SDS011;38002;53.296;6.600;2024-02-23T12:06:55;7.00;;;1.30;;
51985;SDS011;38002;53.296;6.600;2024-02-23T12:11:56;5.40;;;0.73;;
51985;SDS011;38002;53.296;6.600;2024-02-23T12:16:57;6.25;;;1.10;;
51985;SDS011;38002;53.296;6.600;2024-02-23T12:22:01;3.40;;;1.17;;
51985;SDS011;38002;53.296;6.600;2024-02-23T12:27:01;4.57;;;0.90;;
51985;SDS011;38002;53.296;6.600;2024-02-23T12:32:06;4.70;;;1.15;;
51985;SDS011;38002;53.296;6.600;2024-02-23T12:37:08;1.98;;;0.90;;
51985;SDS011;38002;53.296;6.600;2024-02-23T12:42:08;5.15;;;1.20;;
51985;SDS011;38002;53.296;6.600;2024-02-23T12:47:09;3.90;;;1.10;;
51985;SDS011;38002;53.296;6.600;2024-02-23T12:52:09;5.37;;;1.07;;
51985;SDS011;38002;53.296;6.600;2024-02-23T12:57:10;4.90;;;1.03;;
51985;SDS011;38002;53.296;6.600;2024-02-23T13:02:10;3.95;;;1.25;;
51985;SDS011;38002;53.296;6.600;2024-02-23T13:07:12;4.38;;;1.17;;
51985;SDS011;38002;53.296;6.600;2024-02-23T13:12:12;2.17;;;0.90;;
51985;SDS011;38002;53.296;6.600;2024-02-23T13:17:13;1.50;;;1.05;;
51985;SDS011;38002;53.296;6.600;2024-02-23T13:22:13;1.37;;;0.80;;
51985;SDS011;38002;53.296;6.600;2024-02-23T13:27:14;3.00;;;1.47;;
51985;SDS011;38002;53.296;6.600;2024-02-23T13:32:14;2.80;;;1.17;;
51985;SDS011;38002;53.296;6.600;2024-02-23T13:37:15;2.47;;;0.73;;
51985;SDS011;38002;53.296;6.600;2024-02-23T13:42:15;8.17;;;1.40;;
51985;SDS011;38002;53.296;6.600;2024-02-23T13:47:16;1.57;;;1.00;;
51985;SDS011;38002;53.296;6.600;2024-02-23T13:52:17;7.13;;;1.67;;
51985;SDS011;38002;53.296;6.600;2024-02-23T13:57:17;2.08;;;1.95;;
51985;SDS011;38002;53.296;6.600;2024-02-23T14:02:24;1.08;;;0.98;;
51985;SDS011;38002;53.296;6.600;2024-02-23T14:07:26;2.90;;;1.05;;
51985;SDS011;38002;53.296;6.600;2024-02-23T14:12:27;7.33;;;1.60;;
51985;SDS011;38002;53.296;6.600;2024-02-23T14:17:28;4.63;;;1.20;;
51985;SDS011;38002;53.296;6.600;2024-02-23T14:22:28;4.13;;;1.73;;
51985;SDS011;38002;53.296;6.600;2024-02-23T14:27:29;4.40;;;1.23;;
51985;SDS011;38002;53.296;6.600;2024-02-23T14:32:29;2.23;;;0.60;;
51985;SDS011;38002;53.296;6.600;2024-02-23T14:37:31;1.48;;;0.82;;
51985;SDS011;38002;53.296;6.600;2024-02-23T14:42:31;4.90;;;0.80;;
51985;SDS011;38002;53.296;6.600;2024-02-23T14:47:32;2.65;;;1.02;;
51985;SDS011;38002;53.296;6.600;2024-02-23T14:52:32;4.27;;;1.27;;
51985;SDS011;38002;53.296;6.600;2024-02-23T14:57:33;3.35;;;1.20;;
51985;SDS011;38002;53.296;6.600;2024-02-23T15:02:33;7.93;;;1.40;;
51985;SDS011;38002;53.296;6.600;2024-02-23T15:07:34;4.27;;;1.43;;
51985;SDS011;38002;53.296;6.600;2024-02-23T15:12:35;2.70;;;1.37;;
51985;SDS011;38002;53.296;6.600;2024-02-23T15:17:36;7.50;;;1.90;;
51985;SDS011;38002;53.296;6.600;2024-02-23T15:22:36;1.63;;;0.98;;
51985;SDS011;38002;53.296;6.600;2024-02-23T15:27:42;5.60;;;1.90;;
51985;SDS011;38002;53.296;6.600;2024-02-23T15:32:42;3.30;;;2.90;;
51985;SDS011;38002;53.296;6.600;2024-02-23T15:37:43;5.70;;;3.10;;
51985;SDS011;38002;53.296;6.600;2024-02-23T15:42:43;3.40;;;1.13;;
51985;SDS011;38002;53.296;6.600;2024-02-23T15:47:44;1.40;;;1.30;;
51985;SDS011;38002;53.296;6.600;2024-02-23T15:52:44;2.13;;;1.80;;
51985;SDS011;38002;53.296;6.600;2024-02-23T15:57:45;3.77;;;1.60;;
51985;SDS011;38002;53.296;6.600;2024-02-23T16:02:45;4.60;;;1.83;;
51985;SDS011;38002;53.296;6.600;2024-02-23T16:07:46;3.05;;;1.60;;
51985;SDS011;38002;53.296;6.600;2024-02-23T16:12:51;5.95;;;1.52;;
51985;SDS011;38002;53.296;6.600;2024-02-23T16:17:52;2.22;;;0.77;;
51985;SDS011;38002;53.296;6.600;2024-02-23T16:22:53;2.08;;;1.10;;
51985;SDS011;38002;53.296;6.600;2024-02-23T16:27:53;2.17;;;1.00;;
51985;SDS011;38002;53.296;6.600;2024-02-23T16:32:53;5.13;;;2.40;;
51985;SDS011;38002;53.296;6.600;2024-02-23T16:37:54;1.87;;;1.37;;
51985;SDS011;38002;53.296;6.600;2024-02-23T16:42:55;4.90;;;1.70;;
51985;SDS011;38002;53.296;6.600;2024-02-23T16:47:56;2.95;;;1.80;;
51985;SDS011;38002;53.296;6.600;2024-02-23T16:52:57;6.10;;;3.73;;
51985;SDS011;38002;53.296;6.600;2024-02-23T16:57:57;3.93;;;2.87;;
51985;SDS011;38002;53.296;6.600;2024-02-23T17:02:58;9.77;;;3.07;;
51985;SDS011;38002;53.296;6.600;2024-02-23T17:13:00;22.52;;;11.02;;
51985;SDS011;38002;53.296;6.600;2024-02-23T17:18:01;10.40;;;6.17;;
51985;SDS011;38002;53.296;6.600;2024-02-23T17:23:02;9.57;;;4.13;;
51985;SDS011;38002;53.296;6.600;2024-02-23T17:28:03;8.15;;;2.90;;
51985;SDS011;38002;53.296;6.600;2024-02-23T17:33:03;5.73;;;3.57;;
51985;SDS011;38002;53.296;6.600;2024-02-23T17:38:04;6.70;;;4.00;;
51985;SDS011;38002;53.296;6.600;2024-02-23T17:43:05;7.97;;;4.37;;
51985;SDS011;38002;53.296;6.600;2024-02-23T17:48:05;9.10;;;2.67;;
51985;SDS011;38002;53.296;6.600;2024-02-23T17:53:06;6.33;;;2.83;;
51985;SDS011;38002;53.296;6.600;2024-02-23T17:58:06;6.03;;;1.77;;
51985;SDS011;38002;53.296;6.600;2024-02-23T18:03:07;7.28;;;2.35;;
51985;SDS011;38002;53.296;6.600;2024-02-23T18:08:07;4.20;;;2.50;;
51985;SDS011;38002;53.296;6.600;2024-02-23T18:13:08;4.03;;;1.80;;
51985;SDS011;38002;53.296;6.600;2024-02-23T18:18:08;1.50;;;1.40;;
51985;SDS011;38002;53.296;6.600;2024-02-23T18:23:09;0.70;;;0.70;;
51985;SDS011;38002;53.296;6.600;2024-02-23T18:28:09;1.67;;;0.50;;
51985;SDS011;38002;53.296;6.600;2024-02-23T18:33:10;0.93;;;0.47;;
51985;SDS011;38002;53.296;6.600;2024-02-23T18:38:10;1.23;;;0.50;;
51985;SDS011;38002;53.296;6.600;2024-02-23T18:43:11;2.17;;;0.90;;
51985;SDS011;38002;53.296;6.600;2024-02-23T18:48:13;0.80;;;0.80;;
51985;SDS011;38002;53.296;6.600;2024-02-23T18:53:13;1.45;;;1.35;;
51985;SDS011;38002;53.296;6.600;2024-02-23T18:58:14;4.50;;;2.47;;
51985;SDS011;38002;53.296;6.600;2024-02-23T19:03:14;9.73;;;3.57;;
51985;SDS011;38002;53.296;6.600;2024-02-23T19:08:15;9.13;;;4.77;;
51985;SDS011;38002;53.296;6.600;2024-02-23T19:13:15;8.73;;;3.13;;
51985;SDS011;38002;53.296;6.600;2024-02-23T19:18:17;8.70;;;3.35;;
51985;SDS011;38002;53.296;6.600;2024-02-23T19:23:17;3.30;;;1.63;;
51985;SDS011;38002;53.296;6.600;2024-02-23T19:28:18;5.68;;;2.03;;
51985;SDS011;38002;53.296;6.600;2024-02-23T19:33:18;2.93;;;2.10;;
51985;SDS011;38002;53.296;6.600;2024-02-23T19:38:19;9.90;;;2.67;;
51985;SDS011;38002;53.296;6.600;2024-02-23T19:43:20;4.05;;;1.42;;
51985;SDS011;38002;53.296;6.600;2024-02-23T19:48:21;2.60;;;2.30;;
51985;SDS011;38002;53.296;6.600;2024-02-23T19:53:21;5.40;;;2.80;;
51985;SDS011;38002;53.296;6.600;2024-02-23T19:58:22;6.37;;;2.33;;
51985;SDS011;38002;53.296;6.600;2024-02-23T20:03:22;4.17;;;1.90;;
51985;SDS011;38002;53.296;6.600;2024-02-23T20:08:22;5.33;;;2.13;;
51985;SDS011;38002;53.296;6.600;2024-02-23T20:13:23;3.07;;;1.93;;
51985;SDS011;38002;53.296;6.600;2024-02-23T20:18:24;3.37;;;1.80;;
51985;SDS011;38002;53.296;6.600;2024-02-23T20:23:24;8.27;;;1.90;;
51985;SDS011;38002;53.296;6.600;2024-02-23T20:28:24;7.25;;;2.53;;
51985;SDS011;38002;53.296;6.600;2024-02-23T20:33:25;4.83;;;1.83;;
51985;SDS011;38002;53.296;6.600;2024-02-23T20:38:25;5.73;;;1.83;;
51985;SDS011;38002;53.296;6.600;2024-02-23T20:43:26;4.10;;;1.90;;
51985;SDS011;38002;53.296;6.600;2024-02-23T20:48:26;6.37;;;2.80;;
51985;SDS011;38002;53.296;6.600;2024-02-23T20:53:27;2.93;;;2.60;;
51985;SDS011;38002;53.296;6.600;2024-02-23T20:58:27;9.53;;;1.90;;
51985;SDS011;38002;53.296;6.600;2024-02-23T21:03:28;6.17;;;2.17;;
51985;SDS011;38002;53.296;6.600;2024-02-23T21:08:28;14.60;;;4.67;;
51985;SDS011;38002;53.296;6.600;2024-02-23T21:13:29;5.80;;;2.90;;
51985;SDS011;38002;53.296;6.600;2024-02-23T21:18:29;9.97;;;2.30;;
51985;SDS011;38002;53.296;6.600;2024-02-23T21:23:29;3.43;;;1.93;;
51985;SDS011;38002;53.296;6.600;2024-02-23T21:28:31;2.90;;;2.67;;
51985;SDS011;38002;53.296;6.600;2024-02-23T21:33:32;7.03;;;2.85;;
51985;SDS011;38002;53.296;6.600;2024-02-23T21:38:32;5.40;;;2.90;;
51985;SDS011;38002;53.296;6.600;2024-02-23T21:43:34;5.10;;;3.17;;
51985;SDS011;38002;53.296;6.600;2024-02-23T21:48:35;6.43;;;3.08;;
51985;SDS011;38002;53.296;6.600;2024-02-23T21:53:35;4.75;;;2.47;;
51985;SDS011;38002;53.296;6.600;2024-02-23T21:58:37;4.88;;;2.53;;
51985;SDS011;38002;53.296;6.600;2024-02-23T22:03:38;8.33;;;3.30;;
51985;SDS011;38002;53.296;6.600;2024-02-23T22:08:39;4.10;;;2.30;;
51985;SDS011;38002;53.296;6.600;2024-02-23T22:13:42;6.43;;;2.20;;
51985;SDS011;38002;53.296;6.600;2024-02-23T22:18:43;7.15;;;3.03;;
51985;SDS011;38002;53.296;6.600;2024-02-23T22:23:44;3.17;;;2.80;;
51985;SDS011;38002;53.296;6.600;2024-02-23T22:28:44;5.90;;;2.90;;
51985;SDS011;38002;53.296;6.600;2024-02-23T22:33:45;5.40;;;2.50;;
51985;SDS011;38002;53.296;6.600;2024-02-23T22:38:45;4.60;;;2.30;;
51985;SDS011;38002;53.296;6.600;2024-02-23T22:43:45;2.53;;;2.00;;
51985;SDS011;38002;53.296;6.600;2024-02-23T22:48:46;4.07;;;1.87;;
51985;SDS011;38002;53.296;6.600;2024-02-23T22:53:46;5.63;;;2.03;;
51985;SDS011;38002;53.296;6.600;2024-02-23T22:58:47;3.03;;;2.03;;
51985;SDS011;38002;53.296;6.600;2024-02-23T23:03:47;3.90;;;1.73;;
51985;SDS011;38002;53.296;6.600;2024-02-23T23:08:48;6.40;;;2.17;;
51985;SDS011;38002;53.296;6.600;2024-02-23T23:13:48;5.53;;;2.60;;
51985;SDS011;38002;53.296;6.600;2024-02-23T23:18:49;5.15;;;2.25;;
51985;SDS011;38002;53.296;6.600;2024-02-23T23:23:50;1.90;;;1.50;;
51985;SDS011;38002;53.296;6.600;2024-02-23T23:28:50;2.53;;;1.77;;
51985;SDS011;38002;53.296;6.600;2024-02-23T23:33:51;2.40;;;2.07;;
51985;SDS011;38002;53.296;6.600;2024-02-23T23:38:53;2.13;;;1.67;;
51985;SDS011;38002;53.296;6.600;2024-02-23T23:43:53;3.17;;;2.17;;
51985;SDS011;38002;53.296;6.600;2024-02-23T23:48:54;3.33;;;2.40;;
51985;SDS011;38002;53.296;6.600;2024-02-23T23:53:54;2.70;;;1.95;;
51985;SDS011;38002;53.296;6.600;2024-02-23T23:58:58;3.28;;;2.20;;
